Terminal Aerodrome Forecast
Issued by NWS

Home | Current Version | Previous Version | Text Only | Print | Product List | Glossary On
Versions: 1 2 3 4 5 6 7 8 9 10 11 12 13
000
FTUS42 KJAX 210100 AAA
TAFVQQ
TAF AMD
KVQQ 210113Z 2101/2124 04006KT P6SM SCT009 SCT030 OVC080
     FM210200 04004KT P6SM BKN008 OVC080
     FM210300 03003KT P6SM OVC007
     FM210800 00000KT 3SM BR VCSH OVC004
      TEMPO 2109/2113 3SM -RA BR
     FM211500 04005KT P6SM VCSH SCT004 BKN015 OVC150=

USA.gov is the U.S. government's official web portal to all federal, state and local government web resources and services.